sensor_id;sensor_type;location;lat;lon;timestamp;temperature;humidity
11908;DHT22;6014;47.690;9.130;2023-04-01T00:01:33;8.00;99.90
11908;DHT22;6014;47.690;9.130;2023-04-01T00:04:01;7.90;99.90
11908;DHT22;6014;47.690;9.130;2023-04-01T00:06:29;7.90;99.90
11908;DHT22;6014;47.690;9.130;2023-04-01T00:08:58;7.90;99.90
11908;DHT22;6014;47.690;9.130;2023-04-01T00:11:27;7.90;99.90
11908;DHT22;6014;47.690;9.130;2023-04-01T00:13:56;7.90;99.90
11908;DHT22;6014;47.690;9.130;2023-04-01T00:16:24;7.90;99.90
11908;DHT22;6014;47.690;9.130;2023-04-01T00:19:12;7.90;99.90
11908;DHT22;6014;47.690;9.130;2023-04-01T00:21:44;7.90;99.90
11908;DHT22;6014;47.690;9.130;2023-04-01T00:24:17;7.80;99.90
11908;DHT22;6014;47.690;9.130;2023-04-01T00:26:49;7.70;99.90
11908;DHT22;6014;47.690;9.130;2023-04-01T00:29:17;7.70;99.90
11908;DHT22;6014;47.690;9.130;2023-04-01T00:31:45;7.70;99.90
11908;DHT22;6014;47.690;9.130;2023-04-01T00:34:14;7.50;99.90
11908;DHT22;6014;47.690;9.130;2023-04-01T00:36:43;7.50;99.90
11908;DHT22;6014;47.690;9.130;2023-04-01T00:39:10;7.40;99.90
11908;DHT22;6014;47.690;9.130;2023-04-01T00:41:40;7.30;99.90
11908;DHT22;6014;47.690;9.130;2023-04-01T00:44:16;7.30;99.90
11908;DHT22;6014;47.690;9.130;2023-04-01T00:46:46;7.30;99.90
11908;DHT22;6014;47.690;9.130;2023-04-01T00:49:16;7.30;99.90
11908;DHT22;6014;47.690;9.130;2023-04-01T00:51:46;7.20;99.90
11908;DHT22;6014;47.690;9.130;2023-04-01T00:54:19;7.20;99.90
11908;DHT22;6014;47.690;9.130;2023-04-01T00:56:51;7.20;99.90
11908;DHT22;6014;47.690;9.130;2023-04-01T00:59:24;7.10;99.90
11908;DHT22;6014;47.690;9.130;2023-04-01T01:01:53;7.10;99.90
11908;DHT22;6014;47.690;9.130;2023-04-01T01:04:26;7.10;99.90
11908;DHT22;6014;47.690;9.130;2023-04-01T01:07:03;7.00;99.90
11908;DHT22;6014;47.690;9.130;2023-04-01T01:09:43;7.00;99.90
11908;DHT22;6014;47.690;9.130;2023-04-01T01:12:18;7.00;99.90
11908;DHT22;6014;47.690;9.130;2023-04-01T01:14:53;7.00;99.90
11908;DHT22;6014;47.690;9.130;2023-04-01T01:17:31;6.90;99.90
11908;DHT22;6014;47.690;9.130;2023-04-01T01:20:32;7.00;99.90
11908;DHT22;6014;47.690;9.130;2023-04-01T01:26:44;6.90;99.90
11908;DHT22;6014;47.690;9.130;2023-04-01T01:29:30;6.90;99.90
11908;DHT22;6014;47.690;9.130;2023-04-01T01:32:07;6.90;99.90
11908;DHT22;6014;47.690;9.130;2023-04-01T01:34:45;6.80;99.90
11908;DHT22;6014;47.690;9.130;2023-04-01T01:37:22;6.80;99.90
11908;DHT22;6014;47.690;9.130;2023-04-01T01:39:55;6.80;99.90
11908;DHT22;6014;47.690;9.130;2023-04-01T01:42:25;6.90;99.90
11908;DHT22;6014;47.690;9.130;2023-04-01T01:45:02;6.80;99.90
11908;DHT22;6014;47.690;9.130;2023-04-01T01:47:33;6.90;99.90
11908;DHT22;6014;47.690;9.130;2023-04-01T01:50:03;6.90;99.90
11908;DHT22;6014;47.690;9.130;2023-04-01T01:52:32;6.90;99.90
11908;DHT22;6014;47.690;9.130;2023-04-01T01:55:26;6.90;99.90
11908;DHT22;6014;47.690;9.130;2023-04-01T01:57:58;7.00;99.90
11908;DHT22;6014;47.690;9.130;2023-04-01T02:00:27;7.00;99.90
11908;DHT22;6014;47.690;9.130;2023-04-01T02:02:56;7.00;99.90
11908;DHT22;6014;47.690;9.130;2023-04-01T02:05:27;7.20;99.90
11908;DHT22;6014;47.690;9.130;2023-04-01T02:08:02;7.20;99.90
11908;DHT22;6014;47.690;9.130;2023-04-01T02:10:36;7.10;99.90
11908;DHT22;6014;47.690;9.130;2023-04-01T02:13:09;7.40;99.90
11908;DHT22;6014;47.690;9.130;2023-04-01T02:15:44;7.40;99.90
11908;DHT22;6014;47.690;9.130;2023-04-01T02:18:15;7.40;99.90
11908;DHT22;6014;47.690;9.130;2023-04-01T02:20:44;7.30;99.90
11908;DHT22;6014;47.690;9.130;2023-04-01T02:23:14;7.30;99.90
11908;DHT22;6014;47.690;9.130;2023-04-01T02:25:48;7.40;99.90
11908;DHT22;6014;47.690;9.130;2023-04-01T02:28:18;7.40;99.90
11908;DHT22;6014;47.690;9.130;2023-04-01T02:30:48;7.30;99.90
11908;DHT22;6014;47.690;9.130;2023-04-01T02:33:17;7.40;99.90
11908;DHT22;6014;47.690;9.130;2023-04-01T02:35:46;7.40;99.90
11908;DHT22;6014;47.690;9.130;2023-04-01T02:38:18;7.40;99.90
11908;DHT22;6014;47.690;9.130;2023-04-01T02:40:49;7.30;99.90
11908;DHT22;6014;47.690;9.130;2023-04-01T02:43:17;7.30;99.90
11908;DHT22;6014;47.690;9.130;2023-04-01T02:45:48;7.40;99.90
11908;DHT22;6014;47.690;9.130;2023-04-01T02:48:16;7.30;99.90
11908;DHT22;6014;47.690;9.130;2023-04-01T02:50:44;7.40;99.90
11908;DHT22;6014;47.690;9.130;2023-04-01T02:53:12;7.40;99.90
11908;DHT22;6014;47.690;9.130;2023-04-01T02:55:41;7.40;99.90
11908;DHT22;6014;47.690;9.130;2023-04-01T02:58:09;7.40;99.90
11908;DHT22;6014;47.690;9.130;2023-04-01T03:00:37;7.50;99.90
11908;DHT22;6014;47.690;9.130;2023-04-01T03:03:06;7.50;99.90
11908;DHT22;6014;47.690;9.130;2023-04-01T03:05:34;7.50;99.90
11908;DHT22;6014;47.690;9.130;2023-04-01T03:08:03;7.50;99.90
11908;DHT22;6014;47.690;9.130;2023-04-01T03:10:32;7.50;99.90
11908;DHT22;6014;47.690;9.130;2023-04-01T03:13:01;7.50;99.90
11908;DHT22;6014;47.690;9.130;2023-04-01T03:15:29;7.60;99.90
11908;DHT22;6014;47.690;9.130;2023-04-01T03:17:58;7.60;99.90
11908;DHT22;6014;47.690;9.130;2023-04-01T03:20:26;7.70;99.90
11908;DHT22;6014;47.690;9.130;2023-04-01T03:22:54;7.60;99.90
11908;DHT22;6014;47.690;9.130;2023-04-01T03:25:24;7.60;99.90
11908;DHT22;6014;47.690;9.130;2023-04-01T03:27:53;7.60;99.90
11908;DHT22;6014;47.690;9.130;2023-04-01T03:30:22;7.70;99.90
11908;DHT22;6014;47.690;9.130;2023-04-01T03:32:50;7.60;99.90
11908;DHT22;6014;47.690;9.130;2023-04-01T03:35:18;7.70;99.90
11908;DHT22;6014;47.690;9.130;2023-04-01T03:37:46;7.70;99.90
11908;DHT22;6014;47.690;9.130;2023-04-01T03:40:14;7.70;99.90
11908;DHT22;6014;47.690;9.130;2023-04-01T03:42:42;7.90;99.90
11908;DHT22;6014;47.690;9.130;2023-04-01T03:45:11;8.00;99.90
11908;DHT22;6014;47.690;9.130;2023-04-01T03:47:40;8.00;99.90
11908;DHT22;6014;47.690;9.130;2023-04-01T03:50:09;8.00;99.90
11908;DHT22;6014;47.690;9.130;2023-04-01T03:52:37;8.00;99.90
11908;DHT22;6014;47.690;9.130;2023-04-01T03:55:07;8.10;99.90
11908;DHT22;6014;47.690;9.130;2023-04-01T03:57:35;8.10;99.90
11908;DHT22;6014;47.690;9.130;2023-04-01T04:00:04;8.10;99.90
11908;DHT22;6014;47.690;9.130;2023-04-01T04:02:32;8.00;99.90
11908;DHT22;6014;47.690;9.130;2023-04-01T04:05:02;8.10;99.90
11908;DHT22;6014;47.690;9.130;2023-04-01T04:07:30;8.10;99.90
11908;DHT22;6014;47.690;9.130;2023-04-01T04:09:58;8.00;99.90
11908;DHT22;6014;47.690;9.130;2023-04-01T04:12:26;8.00;99.90
11908;DHT22;6014;47.690;9.130;2023-04-01T04:14:54;8.00;99.90
11908;DHT22;6014;47.690;9.130;2023-04-01T04:17:22;7.90;99.90
11908;DHT22;6014;47.690;9.130;2023-04-01T04:19:50;7.90;99.90
11908;DHT22;6014;47.690;9.130;2023-04-01T04:22:20;7.90;99.90
11908;DHT22;6014;47.690;9.130;2023-04-01T04:24:48;7.80;99.90
11908;DHT22;6014;47.690;9.130;2023-04-01T04:27:16;7.90;99.90
11908;DHT22;6014;47.690;9.130;2023-04-01T04:29:45;7.90;99.90
11908;DHT22;6014;47.690;9.130;2023-04-01T04:32:13;7.90;99.90
11908;DHT22;6014;47.690;9.130;2023-04-01T04:34:41;7.80;99.90
11908;DHT22;6014;47.690;9.130;2023-04-01T04:37:09;7.70;99.90
11908;DHT22;6014;47.690;9.130;2023-04-01T04:39:38;7.80;99.90
11908;DHT22;6014;47.690;9.130;2023-04-01T04:42:06;7.80;99.90
11908;DHT22;6014;47.690;9.130;2023-04-01T04:44:34;7.80;99.90
11908;DHT22;6014;47.690;9.130;2023-04-01T04:47:02;7.70;99.90
11908;DHT22;6014;47.690;9.130;2023-04-01T04:49:38;7.60;99.90
11908;DHT22;6014;47.690;9.130;2023-04-01T04:52:06;7.50;99.90
11908;DHT22;6014;47.690;9.130;2023-04-01T04:54:34;7.40;99.90
11908;DHT22;6014;47.690;9.130;2023-04-01T04:57:04;7.30;99.90
11908;DHT22;6014;47.690;9.130;2023-04-01T04:59:32;7.30;99.90
11908;DHT22;6014;47.690;9.130;2023-04-01T05:02:01;7.20;99.90
11908;DHT22;6014;47.690;9.130;2023-04-01T05:04:29;7.20;99.90
11908;DHT22;6014;47.690;9.130;2023-04-01T05:06:57;7.10;99.90
11908;DHT22;6014;47.690;9.130;2023-04-01T05:09:25;7.20;99.90
11908;DHT22;6014;47.690;9.130;2023-04-01T05:11:53;7.20;99.90
11908;DHT22;6014;47.690;9.130;2023-04-01T05:14:22;7.20;99.90
11908;DHT22;6014;47.690;9.130;2023-04-01T05:16:50;7.20;99.90
11908;DHT22;6014;47.690;9.130;2023-04-01T05:19:19;7.20;99.90
11908;DHT22;6014;47.690;9.130;2023-04-01T05:21:47;7.30;99.90
11908;DHT22;6014;47.690;9.130;2023-04-01T05:24:15;7.30;99.90
11908;DHT22;6014;47.690;9.130;2023-04-01T05:26:43;7.40;99.90
11908;DHT22;6014;47.690;9.130;2023-04-01T05:29:11;7.40;99.90
11908;DHT22;6014;47.690;9.130;2023-04-01T05:31:40;7.40;99.90
11908;DHT22;6014;47.690;9.130;2023-04-01T05:34:08;7.30;99.90
11908;DHT22;6014;47.690;9.130;2023-04-01T05:36:37;7.30;99.90
11908;DHT22;6014;47.690;9.130;2023-04-01T05:39:05;7.40;99.90
11908;DHT22;6014;47.690;9.130;2023-04-01T05:41:35;7.50;99.90
11908;DHT22;6014;47.690;9.130;2023-04-01T05:44:04;7.60;99.90
11908;DHT22;6014;47.690;9.130;2023-04-01T05:46:32;7.50;99.90
11908;DHT22;6014;47.690;9.130;2023-04-01T05:49:01;7.50;99.90
11908;DHT22;6014;47.690;9.130;2023-04-01T05:51:29;7.50;99.90
11908;DHT22;6014;47.690;9.130;2023-04-01T05:53:57;7.60;99.90
11908;DHT22;6014;47.690;9.130;2023-04-01T05:56:25;7.60;99.90
11908;DHT22;6014;47.690;9.130;2023-04-01T05:58:54;7.70;99.90
11908;DHT22;6014;47.690;9.130;2023-04-01T06:01:22;7.60;99.90
11908;DHT22;6014;47.690;9.130;2023-04-01T06:03:50;7.50;99.90
11908;DHT22;6014;47.690;9.130;2023-04-01T06:06:24;7.40;99.90
11908;DHT22;6014;47.690;9.130;2023-04-01T06:09:10;7.30;99.90
11908;DHT22;6014;47.690;9.130;2023-04-01T06:14:42;7.40;99.90
11908;DHT22;6014;47.690;9.130;2023-04-01T06:17:24;7.50;99.90
11908;DHT22;6014;47.690;9.130;2023-04-01T06:20:04;7.70;99.90
11908;DHT22;6014;47.690;9.130;2023-04-01T06:25:41;8.00;99.90
11908;DHT22;6014;47.690;9.130;2023-04-01T06:31:37;8.10;99.90
11908;DHT22;6014;47.690;9.130;2023-04-01T06:34:17;8.20;99.90
11908;DHT22;6014;47.690;9.130;2023-04-01T06:37:04;8.40;99.90
11908;DHT22;6014;47.690;9.130;2023-04-01T06:39:53;8.50;99.90
11908;DHT22;6014;47.690;9.130;2023-04-01T06:45:35;8.60;99.90
11908;DHT22;6014;47.690;9.130;2023-04-01T06:51:04;8.60;99.90
11908;DHT22;6014;47.690;9.130;2023-04-01T06:53:38;8.70;99.90
11908;DHT22;6014;47.690;9.130;2023-04-01T06:56:25;8.70;99.90
11908;DHT22;6014;47.690;9.130;2023-04-01T06:58:58;8.80;99.90
11908;DHT22;6014;47.690;9.130;2023-04-01T07:01:30;8.80;99.90
11908;DHT22;6014;47.690;9.130;2023-04-01T07:04:05;9.00;99.90
11908;DHT22;6014;47.690;9.130;2023-04-01T07:06:36;9.30;99.90
11908;DHT22;6014;47.690;9.130;2023-04-01T07:09:08;9.60;99.90
11908;DHT22;6014;47.690;9.130;2023-04-01T07:11:40;9.80;99.90
11908;DHT22;6014;47.690;9.130;2023-04-01T07:14:15;9.50;99.90
11908;DHT22;6014;47.690;9.130;2023-04-01T07:16:50;9.60;99.90
11908;DHT22;6014;47.690;9.130;2023-04-01T07:19:23;9.50;99.90
11908;DHT22;6014;47.690;9.130;2023-04-01T07:21:56;9.50;99.90
11908;DHT22;6014;47.690;9.130;2023-04-01T07:24:27;9.60;99.90
11908;DHT22;6014;47.690;9.130;2023-04-01T07:26:57;9.50;99.90
11908;DHT22;6014;47.690;9.130;2023-04-01T07:29:26;9.60;99.90
11908;DHT22;6014;47.690;9.130;2023-04-01T07:32:09;9.60;99.90
11908;DHT22;6014;47.690;9.130;2023-04-01T07:34:50;9.60;99.90
11908;DHT22;6014;47.690;9.130;2023-04-01T07:37:27;9.50;99.90
11908;DHT22;6014;47.690;9.130;2023-04-01T07:40:09;9.50;99.90
11908;DHT22;6014;47.690;9.130;2023-04-01T07:42:57;9.50;99.90
11908;DHT22;6014;47.690;9.130;2023-04-01T07:45:38;9.40;99.90
11908;DHT22;6014;47.690;9.130;2023-04-01T07:48:18;9.40;99.90
11908;DHT22;6014;47.690;9.130;2023-04-01T07:50:55;9.40;99.90
11908;DHT22;6014;47.690;9.130;2023-04-01T07:53:32;9.30;99.90
11908;DHT22;6014;47.690;9.130;2023-04-01T07:56:06;9.30;99.90
11908;DHT22;6014;47.690;9.130;2023-04-01T07:58:53;9.50;99.90
11908;DHT22;6014;47.690;9.130;2023-04-01T08:01:30;9.60;99.90
11908;DHT22;6014;47.690;9.130;2023-04-01T08:04:15;9.70;99.90
11908;DHT22;6014;47.690;9.130;2023-04-01T08:06:49;9.70;99.90
11908;DHT22;6014;47.690;9.130;2023-04-01T08:09:26;9.90;99.90
11908;DHT22;6014;47.690;9.130;2023-04-01T08:12:04;9.80;99.90
11908;DHT22;6014;47.690;9.130;2023-04-01T08:15:00;9.70;99.90
11908;DHT22;6014;47.690;9.130;2023-04-01T08:17:39;9.70;99.90
11908;DHT22;6014;47.690;9.130;2023-04-01T08:20:21;9.60;99.90
11908;DHT22;6014;47.690;9.130;2023-04-01T08:22:57;9.50;99.90
11908;DHT22;6014;47.690;9.130;2023-04-01T08:25:27;9.50;99.90
11908;DHT22;6014;47.690;9.130;2023-04-01T08:28:00;9.40;99.90
11908;DHT22;6014;47.690;9.130;2023-04-01T08:30:40;9.50;99.90
11908;DHT22;6014;47.690;9.130;2023-04-01T08:33:17;9.40;99.90
11908;DHT22;6014;47.690;9.130;2023-04-01T08:35:51;9.40;99.90
11908;DHT22;6014;47.690;9.130;2023-04-01T08:38:27;9.30;99.90
11908;DHT22;6014;47.690;9.130;2023-04-01T08:41:01;9.30;99.90
11908;DHT22;6014;47.690;9.130;2023-04-01T08:43:51;9.30;99.90
11908;DHT22;6014;47.690;9.130;2023-04-01T08:46:57;9.30;99.90
11908;DHT22;6014;47.690;9.130;2023-04-01T08:52:30;9.20;99.90
11908;DHT22;6014;47.690;9.130;2023-04-01T08:55:30;9.10;99.90
11908;DHT22;6014;47.690;9.130;2023-04-01T09:01:23;9.00;99.90
11908;DHT22;6014;47.690;9.130;2023-04-01T09:04:27;9.00;99.90
11908;DHT22;6014;47.690;9.130;2023-04-01T09:07:05;8.90;99.90
11908;DHT22;6014;47.690;9.130;2023-04-01T09:09:52;8.90;99.90
11908;DHT22;6014;47.690;9.130;2023-04-01T09:12:35;9.00;99.90
11908;DHT22;6014;47.690;9.130;2023-04-01T09:15:26;9.00;99.90
11908;DHT22;6014;47.690;9.130;2023-04-01T09:18:24;9.00;99.90
11908;DHT22;6014;47.690;9.130;2023-04-01T09:21:19;9.00;99.90
11908;DHT22;6014;47.690;9.130;2023-04-01T09:24:09;8.90;99.90
11908;DHT22;6014;47.690;9.130;2023-04-01T09:26:56;8.90;99.90
11908;DHT22;6014;47.690;9.130;2023-04-01T09:29:43;8.80;99.90
11908;DHT22;6014;47.690;9.130;2023-04-01T09:32:51;8.90;99.90
11908;DHT22;6014;47.690;9.130;2023-04-01T09:35:36;8.90;99.90
11908;DHT22;6014;47.690;9.130;2023-04-01T09:38:21;9.00;99.90
11908;DHT22;6014;47.690;9.130;2023-04-01T09:40:56;9.00;99.90
11908;DHT22;6014;47.690;9.130;2023-04-01T09:43:30;9.10;99.90
11908;DHT22;6014;47.690;9.130;2023-04-01T09:46:20;9.20;99.90
11908;DHT22;6014;47.690;9.130;2023-04-01T09:49:22;9.30;99.90
11908;DHT22;6014;47.690;9.130;2023-04-01T09:52:04;9.40;99.90
11908;DHT22;6014;47.690;9.130;2023-04-01T09:54:50;9.50;99.90
11908;DHT22;6014;47.690;9.130;2023-04-01T10:01:01;9.50;99.90
11908;DHT22;6014;47.690;9.130;2023-04-01T10:04:23;9.40;99.90
11908;DHT22;6014;47.690;9.130;2023-04-01T10:07:32;9.50;99.90
11908;DHT22;6014;47.690;9.130;2023-04-01T10:10:39;9.60;99.90
11908;DHT22;6014;47.690;9.130;2023-04-01T10:13:28;9.70;99.90
11908;DHT22;6014;47.690;9.130;2023-04-01T10:16:34;9.70;99.90
11908;DHT22;6014;47.690;9.130;2023-04-01T10:22:41;9.90;99.90
11908;DHT22;6014;47.690;9.130;2023-04-01T10:31:51;10.10;99.90
11908;DHT22;6014;47.690;9.130;2023-04-01T10:38:04;10.10;99.90
11908;DHT22;6014;47.690;9.130;2023-04-01T10:40:53;10.10;99.90
11908;DHT22;6014;47.690;9.130;2023-04-01T10:44:11;10.00;99.90
11908;DHT22;6014;47.690;9.130;2023-04-01T10:47:13;10.10;99.90
11908;DHT22;6014;47.690;9.130;2023-04-01T10:56:28;10.10;99.90
11908;DHT22;6014;47.690;9.130;2023-04-01T11:06:06;10.20;99.90
11908;DHT22;6014;47.690;9.130;2023-04-01T11:12:09;9.90;99.90
11908;DHT22;6014;47.690;9.130;2023-04-01T11:15:09;10.00;99.90
11908;DHT22;6014;47.690;9.130;2023-04-01T11:24:03;10.50;99.90
11908;DHT22;6014;47.690;9.130;2023-04-01T11:27:04;10.50;99.90
11908;DHT22;6014;47.690;9.130;2023-04-01T11:29:57;10.50;99.90
11908;DHT22;6014;47.690;9.130;2023-04-01T11:32:42;10.60;99.90
11908;DHT22;6014;47.690;9.130;2023-04-01T11:35:49;10.90;99.90
11908;DHT22;6014;47.690;9.130;2023-04-01T11:38:38;10.90;99.90
11908;DHT22;6014;47.690;9.130;2023-04-01T11:41:20;10.90;99.90
11908;DHT22;6014;47.690;9.130;2023-04-01T11:44:14;11.00;99.90
11908;DHT22;6014;47.690;9.130;2023-04-01T11:49:57;11.00;99.90
11908;DHT22;6014;47.690;9.130;2023-04-01T11:52:45;11.00;99.90
11908;DHT22;6014;47.690;9.130;2023-04-01T11:55:22;11.00;99.90
11908;DHT22;6014;47.690;9.130;2023-04-01T11:58:19;10.90;99.90
11908;DHT22;6014;47.690;9.130;2023-04-01T12:01:26;11.10;99.90
11908;DHT22;6014;47.690;9.130;2023-04-01T12:07:20;11.10;99.90
11908;DHT22;6014;47.690;9.130;2023-04-01T12:10:15;11.10;99.90
11908;DHT22;6014;47.690;9.130;2023-04-01T12:12:58;11.40;99.90
11908;DHT22;6014;47.690;9.130;2023-04-01T12:15:50;11.50;99.90
11908;DHT22;6014;47.690;9.130;2023-04-01T12:18:31;11.40;99.90
11908;DHT22;6014;47.690;9.130;2023-04-01T12:21:06;11.20;99.90
11908;DHT22;6014;47.690;9.130;2023-04-01T12:24:01;11.20;99.90
11908;DHT22;6014;47.690;9.130;2023-04-01T12:26:59;11.10;99.90
11908;DHT22;6014;47.690;9.130;2023-04-01T12:33:10;10.80;99.90
11908;DHT22;6014;47.690;9.130;2023-04-01T12:35:55;10.50;99.90
11908;DHT22;6014;47.690;9.130;2023-04-01T12:38:31;10.30;99.90
11908;DHT22;6014;47.690;9.130;2023-04-01T12:41:24;10.10;99.90
11908;DHT22;6014;47.690;9.130;2023-04-01T12:50:34;10.20;99.90
11908;DHT22;6014;47.690;9.130;2023-04-01T12:53:37;10.30;99.90
11908;DHT22;6014;47.690;9.130;2023-04-01T12:56:14;10.60;99.90
11908;DHT22;6014;47.690;9.130;2023-04-01T13:02:21;10.80;99.90
11908;DHT22;6014;47.690;9.130;2023-04-01T13:05:19;10.80;99.90
11908;DHT22;6014;47.690;9.130;2023-04-01T13:08:09;10.90;99.90
11908;DHT22;6014;47.690;9.130;2023-04-01T13:10:56;10.60;99.90
11908;DHT22;6014;47.690;9.130;2023-04-01T13:13:39;10.80;99.90
11908;DHT22;6014;47.690;9.130;2023-04-01T13:16:14;10.70;99.90
11908;DHT22;6014;47.690;9.130;2023-04-01T13:18:55;11.00;99.90
11908;DHT22;6014;47.690;9.130;2023-04-01T13:21:32;10.90;99.90
11908;DHT22;6014;47.690;9.130;2023-04-01T13:24:12;10.90;99.90
11908;DHT22;6014;47.690;9.130;2023-04-01T13:26:53;10.90;99.90
11908;DHT22;6014;47.690;9.130;2023-04-01T13:29:26;10.90;99.90
11908;DHT22;6014;47.690;9.130;2023-04-01T13:32:04;10.80;99.90
11908;DHT22;6014;47.690;9.130;2023-04-01T13:34:39;10.60;99.90
11908;DHT22;6014;47.690;9.130;2023-04-01T13:40:26;10.70;99.90
11908;DHT22;6014;47.690;9.130;2023-04-01T13:42:59;10.60;99.90
11908;DHT22;6014;47.690;9.130;2023-04-01T13:45:34;10.70;99.90
11908;DHT22;6014;47.690;9.130;2023-04-01T13:51:46;10.60;99.90
11908;DHT22;6014;47.690;9.130;2023-04-01T13:55:05;10.60;99.90
11908;DHT22;6014;47.690;9.130;2023-04-01T13:57:57;10.70;99.90
11908;DHT22;6014;47.690;9.130;2023-04-01T14:00:35;10.70;99.90
11908;DHT22;6014;47.690;9.130;2023-04-01T14:03:26;10.60;99.90
11908;DHT22;6014;47.690;9.130;2023-04-01T14:06:05;10.70;99.90
11908;DHT22;6014;47.690;9.130;2023-04-01T14:08:47;10.70;99.90
11908;DHT22;6014;47.690;9.130;2023-04-01T14:11:29;10.70;99.90
11908;DHT22;6014;47.690;9.130;2023-04-01T14:14:11;10.60;99.90
11908;DHT22;6014;47.690;9.130;2023-04-01T14:17:01;10.40;99.90
11908;DHT22;6014;47.690;9.130;2023-04-01T14:19:50;10.10;99.90
11908;DHT22;6014;47.690;9.130;2023-04-01T14:22:36;10.00;99.90
11908;DHT22;6014;47.690;9.130;2023-04-01T14:25:39;10.00;99.90
11908;DHT22;6014;47.690;9.130;2023-04-01T14:28:16;9.90;99.90
11908;DHT22;6014;47.690;9.130;2023-04-01T14:34:00;9.80;99.90
11908;DHT22;6014;47.690;9.130;2023-04-01T14:37:07;9.80;99.90
11908;DHT22;6014;47.690;9.130;2023-04-01T14:43:20;10.00;99.90
11908;DHT22;6014;47.690;9.130;2023-04-01T14:46:08;10.10;99.90
11908;DHT22;6014;47.690;9.130;2023-04-01T14:48:51;10.10;99.90
11908;DHT22;6014;47.690;9.130;2023-04-01T14:51:29;10.00;99.90
11908;DHT22;6014;47.690;9.130;2023-04-01T14:54:12;9.70;99.90
11908;DHT22;6014;47.690;9.130;2023-04-01T14:56:51;9.50;99.90
11908;DHT22;6014;47.690;9.130;2023-04-01T14:59:29;9.40;99.90
11908;DHT22;6014;47.690;9.130;2023-04-01T15:02:14;9.60;99.90
11908;DHT22;6014;47.690;9.130;2023-04-01T15:05:07;9.70;99.90
11908;DHT22;6014;47.690;9.130;2023-04-01T15:17:01;10.20;99.90
11908;DHT22;6014;47.690;9.130;2023-04-01T15:19:47;10.20;99.90
11908;DHT22;6014;47.690;9.130;2023-04-01T15:22:39;10.30;99.90
11908;DHT22;6014;47.690;9.130;2023-04-01T15:25:23;10.40;99.90
11908;DHT22;6014;47.690;9.130;2023-04-01T15:27:56;10.50;99.90
11908;DHT22;6014;47.690;9.130;2023-04-01T15:30:48;10.40;99.90
11908;DHT22;6014;47.690;9.130;2023-04-01T15:33:29;10.30;99.90
11908;DHT22;6014;47.690;9.130;2023-04-01T15:36:15;10.30;99.90
11908;DHT22;6014;47.690;9.130;2023-04-01T15:38:50;10.20;99.90
11908;DHT22;6014;47.690;9.130;2023-04-01T15:41:27;10.20;99.90
11908;DHT22;6014;47.690;9.130;2023-04-01T15:43:57;10.20;99.90
11908;DHT22;6014;47.690;9.130;2023-04-01T15:46:43;10.20;99.90
11908;DHT22;6014;47.690;9.130;2023-04-01T15:49:20;10.10;99.90
11908;DHT22;6014;47.690;9.130;2023-04-01T15:52:12;10.20;99.90
11908;DHT22;6014;47.690;9.130;2023-04-01T15:55:12;10.30;99.90
11908;DHT22;6014;47.690;9.130;2023-04-01T15:57:52;10.20;99.90
11908;DHT22;6014;47.690;9.130;2023-04-01T16:00:29;10.40;99.90
11908;DHT22;6014;47.690;9.130;2023-04-01T16:03:13;10.50;99.90
11908;DHT22;6014;47.690;9.130;2023-04-01T16:05:55;10.50;99.90
11908;DHT22;6014;47.690;9.130;2023-04-01T16:11:41;10.50;99.90
11908;DHT22;6014;47.690;9.130;2023-04-01T16:14:29;10.50;99.90
11908;DHT22;6014;47.690;9.130;2023-04-01T16:17:10;10.40;99.90
11908;DHT22;6014;47.690;9.130;2023-04-01T16:19:51;10.40;99.90
11908;DHT22;6014;47.690;9.130;2023-04-01T16:22:24;10.50;99.90
11908;DHT22;6014;47.690;9.130;2023-04-01T16:25:10;10.50;99.90
11908;DHT22;6014;47.690;9.130;2023-04-01T16:27:48;10.50;99.90
11908;DHT22;6014;47.690;9.130;2023-04-01T16:30:32;10.40;99.90
11908;DHT22;6014;47.690;9.130;2023-04-01T16:33:04;10.40;99.90
11908;DHT22;6014;47.690;9.130;2023-04-01T16:35:43;10.40;99.90
11908;DHT22;6014;47.690;9.130;2023-04-01T16:38:18;10.30;99.90
11908;DHT22;6014;47.690;9.130;2023-04-01T16:40:58;10.30;99.90
11908;DHT22;6014;47.690;9.130;2023-04-01T16:43:40;10.40;99.90
11908;DHT22;6014;47.690;9.130;2023-04-01T16:46:27;10.30;99.90
11908;DHT22;6014;47.690;9.130;2023-04-01T16:49:03;10.30;99.90
11908;DHT22;6014;47.690;9.130;2023-04-01T16:51:40;10.30;99.90
11908;DHT22;6014;47.690;9.130;2023-04-01T16:54:15;10.30;99.90
11908;DHT22;6014;47.690;9.130;2023-04-01T16:56:50;10.30;99.90
11908;DHT22;6014;47.690;9.130;2023-04-01T16:59:25;10.40;99.90
11908;DHT22;6014;47.690;9.130;2023-04-01T17:01:57;10.40;99.90
11908;DHT22;6014;47.690;9.130;2023-04-01T17:04:34;10.30;99.90
11908;DHT22;6014;47.690;9.130;2023-04-01T17:07:11;10.30;99.90
11908;DHT22;6014;47.690;9.130;2023-04-01T17:10:04;10.30;99.90
11908;DHT22;6014;47.690;9.130;2023-04-01T17:12:43;10.20;99.90
11908;DHT22;6014;47.690;9.130;2023-04-01T17:15:21;10.20;99.90
11908;DHT22;6014;47.690;9.130;2023-04-01T17:17:58;10.00;99.90
11908;DHT22;6014;47.690;9.130;2023-04-01T17:20:35;10.00;99.90
11908;DHT22;6014;47.690;9.130;2023-04-01T17:23:14;9.90;99.90
11908;DHT22;6014;47.690;9.130;2023-04-01T17:25:55;9.80;99.90
11908;DHT22;6014;47.690;9.130;2023-04-01T17:28:36;9.70;99.90
11908;DHT22;6014;47.690;9.130;2023-04-01T17:31:15;9.70;99.90
11908;DHT22;6014;47.690;9.130;2023-04-01T17:37:15;9.60;99.90
11908;DHT22;6014;47.690;9.130;2023-04-01T17:39:59;9.60;99.90
11908;DHT22;6014;47.690;9.130;2023-04-01T17:42:37;9.70;99.90
11908;DHT22;6014;47.690;9.130;2023-04-01T17:45:19;9.90;99.90
11908;DHT22;6014;47.690;9.130;2023-04-01T17:48:03;10.00;99.90
11908;DHT22;6014;47.690;9.130;2023-04-01T17:50:47;10.00;99.90
11908;DHT22;6014;47.690;9.130;2023-04-01T17:53:29;10.00;99.90
11908;DHT22;6014;47.690;9.130;2023-04-01T17:56:17;9.90;99.90
11908;DHT22;6014;47.690;9.130;2023-04-01T17:58:50;9.80;99.90
11908;DHT22;6014;47.690;9.130;2023-04-01T18:01:48;9.80;99.90
11908;DHT22;6014;47.690;9.130;2023-04-01T18:04:40;9.70;99.90
11908;DHT22;6014;47.690;9.130;2023-04-01T18:07:47;9.60;99.90
11908;DHT22;6014;47.690;9.130;2023-04-01T18:10:28;9.50;99.90
11908;DHT22;6014;47.690;9.130;2023-04-01T18:13:19;9.40;99.90
11908;DHT22;6014;47.690;9.130;2023-04-01T18:16:02;9.40;99.90
11908;DHT22;6014;47.690;9.130;2023-04-01T18:18:46;9.50;99.90
11908;DHT22;6014;47.690;9.130;2023-04-01T18:21:22;9.50;99.90
11908;DHT22;6014;47.690;9.130;2023-04-01T18:23:55;9.50;99.90
11908;DHT22;6014;47.690;9.130;2023-04-01T18:26:29;9.50;99.90
11908;DHT22;6014;47.690;9.130;2023-04-01T18:29:13;9.50;99.90
11908;DHT22;6014;47.690;9.130;2023-04-01T18:31:49;9.40;99.90
11908;DHT22;6014;47.690;9.130;2023-04-01T18:34:38;9.40;99.90
11908;DHT22;6014;47.690;9.130;2023-04-01T18:37:17;9.30;99.90
11908;DHT22;6014;47.690;9.130;2023-04-01T18:39:48;9.30;99.90
11908;DHT22;6014;47.690;9.130;2023-04-01T18:42:25;9.20;99.90
11908;DHT22;6014;47.690;9.130;2023-04-01T18:45:02;9.20;99.90
11908;DHT22;6014;47.690;9.130;2023-04-01T18:47:43;9.20;99.90
11908;DHT22;6014;47.690;9.130;2023-04-01T18:50:21;9.10;99.90
11908;DHT22;6014;47.690;9.130;2023-04-01T18:52:56;9.10;99.90
11908;DHT22;6014;47.690;9.130;2023-04-01T18:55:32;9.00;99.90
11908;DHT22;6014;47.690;9.130;2023-04-01T18:58:14;8.90;99.90
11908;DHT22;6014;47.690;9.130;2023-04-01T19:00:51;8.80;99.90
11908;DHT22;6014;47.690;9.130;2023-04-01T19:03:26;8.80;99.90